sensor_id;sensor_type;location;lat;lon;timestamp;P1;durP1;ratioP1;P2;durP2;ratioP2
5710;SDS011;61291;52.524;13.422;2022-09-14T00:00:04;60.70;;;56.30;;
5710;SDS011;61291;52.524;13.422;2022-09-14T00:02:31;62.93;;;57.03;;
5710;SDS011;61291;52.524;13.422;2022-09-14T00:04:56;64.50;;;59.00;;
5710;SDS011;61291;52.524;13.422;2022-09-14T00:07:22;62.63;;;57.53;;
5710;SDS011;61291;52.524;13.422;2022-09-14T00:09:47;63.77;;;58.27;;
5710;SDS011;61291;52.524;13.422;2022-09-14T00:12:14;63.83;;;59.00;;
5710;SDS011;61291;52.524;13.422;2022-09-14T00:14:40;63.00;;;57.60;;
5710;SDS011;61291;52.524;13.422;2022-09-14T00:17:05;63.97;;;58.27;;
5710;SDS011;61291;52.524;13.422;2022-09-14T00:19:31;63.53;;;58.00;;
5710;SDS011;61291;52.524;13.422;2022-09-14T00:21:57;63.90;;;58.93;;
5710;SDS011;61291;52.524;13.422;2022-09-14T00:24:24;63.63;;;58.83;;
5710;SDS011;61291;52.524;13.422;2022-09-14T00:26:51;62.73;;;58.03;;
5710;SDS011;61291;52.524;13.422;2022-09-14T00:29:17;62.50;;;57.27;;
5710;SDS011;61291;52.524;13.422;2022-09-14T00:31:43;61.80;;;56.73;;
5710;SDS011;61291;52.524;13.422;2022-09-14T00:34:10;63.33;;;57.23;;
5710;SDS011;61291;52.524;13.422;2022-09-14T00:36:39;62.20;;;57.03;;
5710;SDS011;61291;52.524;13.422;2022-09-14T00:39:05;64.17;;;58.10;;
5710;SDS011;61291;52.524;13.422;2022-09-14T00:41:32;62.80;;;57.17;;
5710;SDS011;61291;52.524;13.422;2022-09-14T00:44:54;61.40;;;56.13;;
5710;SDS011;61291;52.524;13.422;2022-09-14T00:46:55;60.97;;;55.93;;
5710;SDS011;61291;52.524;13.422;2022-09-14T00:49:25;63.27;;;57.27;;
5710;SDS011;61291;52.524;13.422;2022-09-14T00:52:00;61.63;;;56.00;;
5710;SDS011;61291;52.524;13.422;2022-09-14T00:54:33;60.30;;;55.63;;
5710;SDS011;61291;52.524;13.422;2022-09-14T00:57:03;61.37;;;55.97;;
5710;SDS011;61291;52.524;13.422;2022-09-14T00:59:30;59.53;;;54.87;;
5710;SDS011;61291;52.524;13.422;2022-09-14T01:02:00;61.67;;;56.50;;
5710;SDS011;61291;52.524;13.422;2022-09-14T01:04:25;62.93;;;57.50;;
5710;SDS011;61291;52.524;13.422;2022-09-14T01:06:53;63.57;;;57.53;;
5710;SDS011;61291;52.524;13.422;2022-09-14T01:09:29;62.87;;;57.17;;
5710;SDS011;61291;52.524;13.422;2022-09-14T01:12:32;62.50;;;57.00;;
5710;SDS011;61291;52.524;13.422;2022-09-14T01:15:25;66.17;;;60.00;;
5710;SDS011;61291;52.524;13.422;2022-09-14T01:18:06;65.07;;;59.20;;
5710;SDS011;61291;52.524;13.422;2022-09-14T01:20:45;65.03;;;59.07;;
5710;SDS011;61291;52.524;13.422;2022-09-14T01:23:26;63.93;;;58.00;;
5710;SDS011;61291;52.524;13.422;2022-09-14T01:26:18;57.17;;;51.83;;
5710;SDS011;61291;52.524;13.422;2022-09-14T01:29:16;64.87;;;58.80;;
5710;SDS011;61291;52.524;13.422;2022-09-14T01:34:32;62.97;;;57.50;;
5710;SDS011;61291;52.524;13.422;2022-09-14T01:37:04;61.93;;;57.13;;
5710;SDS011;61291;52.524;13.422;2022-09-14T01:39:37;58.67;;;53.47;;
5710;SDS011;61291;52.524;13.422;2022-09-14T01:42:05;62.43;;;57.37;;
5710;SDS011;61291;52.524;13.422;2022-09-14T01:44:33;62.20;;;57.00;;
5710;SDS011;61291;52.524;13.422;2022-09-14T01:47:05;63.73;;;58.03;;
5710;SDS011;61291;52.524;13.422;2022-09-14T01:49:38;64.30;;;58.67;;
5710;SDS011;61291;52.524;13.422;2022-09-14T01:52:09;63.47;;;57.43;;
5710;SDS011;61291;52.524;13.422;2022-09-14T01:54:42;62.50;;;56.80;;
5710;SDS011;61291;52.524;13.422;2022-09-14T01:57:15;61.50;;;56.30;;
5710;SDS011;61291;52.524;13.422;2022-09-14T02:00:04;64.27;;;58.90;;
5710;SDS011;61291;52.524;13.422;2022-09-14T02:02:37;63.63;;;57.10;;
5710;SDS011;61291;52.524;13.422;2022-09-14T02:05:28;63.47;;;58.10;;
5710;SDS011;61291;52.524;13.422;2022-09-14T02:07:58;62.70;;;58.10;;
5710;SDS011;61291;52.524;13.422;2022-09-14T02:10:24;65.47;;;60.10;;
5710;SDS011;61291;52.524;13.422;2022-09-14T02:12:51;64.07;;;58.97;;
5710;SDS011;61291;52.524;13.422;2022-09-14T02:15:17;64.80;;;59.10;;
5710;SDS011;61291;52.524;13.422;2022-09-14T02:17:43;65.23;;;59.70;;
5710;SDS011;61291;52.524;13.422;2022-09-14T02:20:13;66.87;;;60.97;;
5710;SDS011;61291;52.524;13.422;2022-09-14T02:22:42;64.20;;;59.07;;
5710;SDS011;61291;52.524;13.422;2022-09-14T02:25:08;64.00;;;59.07;;
5710;SDS011;61291;52.524;13.422;2022-09-14T02:27:34;63.70;;;59.10;;
5710;SDS011;61291;52.524;13.422;2022-09-14T02:29:59;71.20;;;65.60;;
5710;SDS011;61291;52.524;13.422;2022-09-14T02:32:37;63.97;;;58.87;;
5710;SDS011;61291;52.524;13.422;2022-09-14T02:36:01;62.83;;;57.93;;
5710;SDS011;61291;52.524;13.422;2022-09-14T02:40:55;65.00;;;59.40;;
5710;SDS011;61291;52.524;13.422;2022-09-14T02:43:34;73.67;;;68.10;;
5710;SDS011;61291;52.524;13.422;2022-09-14T02:49:31;73.27;;;67.67;;
5710;SDS011;61291;52.524;13.422;2022-09-14T02:52:18;77.70;;;71.50;;
5710;SDS011;61291;52.524;13.422;2022-09-14T02:54:54;74.90;;;68.47;;
5710;SDS011;61291;52.524;13.422;2022-09-14T02:57:26;75.17;;;68.30;;
5710;SDS011;61291;52.524;13.422;2022-09-14T02:59:52;81.83;;;75.03;;
5710;SDS011;61291;52.524;13.422;2022-09-14T03:02:18;73.60;;;66.10;;
5710;SDS011;61291;52.524;13.422;2022-09-14T03:04:44;68.80;;;62.90;;
5710;SDS011;61291;52.524;13.422;2022-09-14T03:07:09;69.40;;;63.70;;
5710;SDS011;61291;52.524;13.422;2022-09-14T03:09:35;68.23;;;62.90;;
5710;SDS011;61291;52.524;13.422;2022-09-14T03:12:00;67.37;;;62.30;;
5710;SDS011;61291;52.524;13.422;2022-09-14T03:14:26;71.20;;;65.30;;
5710;SDS011;61291;52.524;13.422;2022-09-14T03:16:52;70.60;;;65.30;;
5710;SDS011;61291;52.524;13.422;2022-09-14T03:19:18;68.63;;;63.07;;
5710;SDS011;61291;52.524;13.422;2022-09-14T03:21:43;69.70;;;64.30;;
5710;SDS011;61291;52.524;13.422;2022-09-14T03:24:08;69.47;;;64.07;;
5710;SDS011;61291;52.524;13.422;2022-09-14T03:26:34;72.70;;;67.00;;
5710;SDS011;61291;52.524;13.422;2022-09-14T03:29:02;70.00;;;63.93;;
5710;SDS011;61291;52.524;13.422;2022-09-14T03:31:29;69.20;;;64.03;;
5710;SDS011;61291;52.524;13.422;2022-09-14T03:33:55;71.67;;;65.93;;
5710;SDS011;61291;52.524;13.422;2022-09-14T03:36:23;74.27;;;68.50;;
5710;SDS011;61291;52.524;13.422;2022-09-14T03:38:50;75.77;;;69.27;;
5710;SDS011;61291;52.524;13.422;2022-09-14T03:41:17;73.07;;;67.60;;
5710;SDS011;61291;52.524;13.422;2022-09-14T03:43:44;75.87;;;69.87;;
5710;SDS011;61291;52.524;13.422;2022-09-14T03:46:13;71.30;;;64.83;;
5710;SDS011;61291;52.524;13.422;2022-09-14T03:48:47;68.47;;;63.47;;
5710;SDS011;61291;52.524;13.422;2022-09-14T03:51:14;71.80;;;64.40;;
5710;SDS011;61291;52.524;13.422;2022-09-14T03:53:40;70.87;;;65.40;;
5710;SDS011;61291;52.524;13.422;2022-09-14T03:56:07;76.07;;;69.83;;
5710;SDS011;61291;52.524;13.422;2022-09-14T03:58:34;67.80;;;62.50;;
5710;SDS011;61291;52.524;13.422;2022-09-14T04:01:07;75.50;;;69.50;;
5710;SDS011;61291;52.524;13.422;2022-09-14T04:03:34;69.30;;;63.83;;
5710;SDS011;61291;52.524;13.422;2022-09-14T04:06:00;68.97;;;62.57;;
5710;SDS011;61291;52.524;13.422;2022-09-14T04:08:29;68.20;;;63.00;;
5710;SDS011;61291;52.524;13.422;2022-09-14T04:10:56;69.13;;;64.10;;
5710;SDS011;61291;52.524;13.422;2022-09-14T04:13:21;68.93;;;63.60;;
5710;SDS011;61291;52.524;13.422;2022-09-14T04:15:59;71.23;;;66.03;;
5710;SDS011;61291;52.524;13.422;2022-09-14T04:18:25;69.40;;;64.57;;
5710;SDS011;61291;52.524;13.422;2022-09-14T04:20:55;67.00;;;61.50;;
5710;SDS011;61291;52.524;13.422;2022-09-14T04:23:21;72.67;;;66.90;;
5710;SDS011;61291;52.524;13.422;2022-09-14T04:25:47;67.03;;;61.43;;
5710;SDS011;61291;52.524;13.422;2022-09-14T04:28:13;76.40;;;69.07;;
5710;SDS011;61291;52.524;13.422;2022-09-14T04:30:38;68.50;;;63.50;;
5710;SDS011;61291;52.524;13.422;2022-09-14T04:33:04;69.20;;;63.83;;
5710;SDS011;61291;52.524;13.422;2022-09-14T04:35:29;67.80;;;63.00;;
5710;SDS011;61291;52.524;13.422;2022-09-14T04:37:54;63.73;;;58.73;;
5710;SDS011;61291;52.524;13.422;2022-09-14T04:40:20;68.57;;;63.27;;
5710;SDS011;61291;52.524;13.422;2022-09-14T04:42:46;61.60;;;56.97;;
5710;SDS011;61291;52.524;13.422;2022-09-14T04:45:11;70.50;;;64.43;;
5710;SDS011;61291;52.524;13.422;2022-09-14T04:47:37;67.60;;;60.90;;
5710;SDS011;61291;52.524;13.422;2022-09-14T04:50:03;66.97;;;61.40;;
5710;SDS011;61291;52.524;13.422;2022-09-14T04:52:30;57.45;;;52.58;;
5710;SDS011;61291;52.524;13.422;2022-09-14T04:54:55;66.43;;;61.50;;
5710;SDS011;61291;52.524;13.422;2022-09-14T04:57:21;69.73;;;64.33;;
5710;SDS011;61291;52.524;13.422;2022-09-14T04:59:47;66.40;;;60.83;;
5710;SDS011;61291;52.524;13.422;2022-09-14T05:02:12;65.20;;;59.27;;
5710;SDS011;61291;52.524;13.422;2022-09-14T05:04:37;61.23;;;55.97;;
5710;SDS011;61291;52.524;13.422;2022-09-14T05:07:03;64.40;;;59.67;;
5710;SDS011;61291;52.524;13.422;2022-09-14T05:09:28;60.33;;;55.90;;
5710;SDS011;61291;52.524;13.422;2022-09-14T05:11:54;65.73;;;60.93;;
5710;SDS011;61291;52.524;13.422;2022-09-14T05:14:19;70.23;;;64.60;;
5710;SDS011;61291;52.524;13.422;2022-09-14T05:16:45;66.70;;;60.97;;
5710;SDS011;61291;52.524;13.422;2022-09-14T05:19:13;69.03;;;63.23;;
5710;SDS011;61291;52.524;13.422;2022-09-14T05:21:40;69.37;;;63.67;;
5710;SDS011;61291;52.524;13.422;2022-09-14T05:24:10;64.80;;;59.77;;
5710;SDS011;61291;52.524;13.422;2022-09-14T05:26:40;67.50;;;62.10;;
5710;SDS011;61291;52.524;13.422;2022-09-14T05:29:09;69.53;;;63.73;;
5710;SDS011;61291;52.524;13.422;2022-09-14T05:31:36;69.87;;;63.53;;
5710;SDS011;61291;52.524;13.422;2022-09-14T05:34:02;72.40;;;67.30;;
5710;SDS011;61291;52.524;13.422;2022-09-14T05:36:27;70.50;;;65.20;;
5710;SDS011;61291;52.524;13.422;2022-09-14T05:38:53;71.00;;;65.57;;
5710;SDS011;61291;52.524;13.422;2022-09-14T05:41:19;68.00;;;62.90;;
5710;SDS011;61291;52.524;13.422;2022-09-14T05:43:44;71.40;;;65.63;;
5710;SDS011;61291;52.524;13.422;2022-09-14T05:46:11;74.90;;;68.90;;
5710;SDS011;61291;52.524;13.422;2022-09-14T05:48:38;71.70;;;65.73;;
5710;SDS011;61291;52.524;13.422;2022-09-14T05:51:14;76.77;;;69.93;;
5710;SDS011;61291;52.524;13.422;2022-09-14T05:53:46;68.33;;;63.13;;
5710;SDS011;61291;52.524;13.422;2022-09-14T05:56:13;72.00;;;66.30;;
5710;SDS011;61291;52.524;13.422;2022-09-14T05:58:39;73.13;;;67.37;;
5710;SDS011;61291;52.524;13.422;2022-09-14T06:01:06;77.77;;;71.07;;
5710;SDS011;61291;52.524;13.422;2022-09-14T06:03:36;73.83;;;67.20;;
5710;SDS011;61291;52.524;13.422;2022-09-14T06:06:03;65.03;;;60.13;;
5710;SDS011;61291;52.524;13.422;2022-09-14T06:08:29;66.13;;;61.23;;
5710;SDS011;61291;52.524;13.422;2022-09-14T06:10:55;62.37;;;56.67;;
5710;SDS011;61291;52.524;13.422;2022-09-14T06:13:21;70.13;;;64.23;;
5710;SDS011;61291;52.524;13.422;2022-09-14T06:15:49;69.57;;;63.60;;
5710;SDS011;61291;52.524;13.422;2022-09-14T06:18:15;68.23;;;62.90;;
5710;SDS011;61291;52.524;13.422;2022-09-14T06:20:48;75.57;;;63.40;;
5710;SDS011;61291;52.524;13.422;2022-09-14T06:23:14;77.17;;;70.57;;
5710;SDS011;61291;52.524;13.422;2022-09-14T06:25:40;64.00;;;58.73;;
5710;SDS011;61291;52.524;13.422;2022-09-14T06:28:05;76.67;;;69.97;;
5710;SDS011;61291;52.524;13.422;2022-09-14T06:30:31;72.10;;;66.30;;
5710;SDS011;61291;52.524;13.422;2022-09-14T06:32:56;72.10;;;66.30;;
5710;SDS011;61291;52.524;13.422;2022-09-14T06:35:22;76.80;;;69.47;;
5710;SDS011;61291;52.524;13.422;2022-09-14T06:37:47;71.33;;;64.63;;
5710;SDS011;61291;52.524;13.422;2022-09-14T06:40:13;73.53;;;67.50;;
5710;SDS011;61291;52.524;13.422;2022-09-14T06:42:38;73.27;;;66.10;;
5710;SDS011;61291;52.524;13.422;2022-09-14T06:45:04;82.47;;;75.03;;
5710;SDS011;61291;52.524;13.422;2022-09-14T06:47:30;73.53;;;67.43;;
5710;SDS011;61291;52.524;13.422;2022-09-14T06:49:56;79.13;;;73.13;;
5710;SDS011;61291;52.524;13.422;2022-09-14T06:52:22;76.80;;;70.03;;
5710;SDS011;61291;52.524;13.422;2022-09-14T06:54:48;77.03;;;68.90;;
5710;SDS011;61291;52.524;13.422;2022-09-14T06:57:13;74.10;;;67.00;;
5710;SDS011;61291;52.524;13.422;2022-09-14T06:59:39;66.15;;;60.53;;
5710;SDS011;61291;52.524;13.422;2022-09-14T07:02:08;74.50;;;68.17;;
5710;SDS011;61291;52.524;13.422;2022-09-14T07:04:37;72.57;;;66.87;;
5710;SDS011;61291;52.524;13.422;2022-09-14T07:07:02;68.77;;;62.80;;
5710;SDS011;61291;52.524;13.422;2022-09-14T07:09:28;71.13;;;64.90;;
5710;SDS011;61291;52.524;13.422;2022-09-14T07:11:55;72.07;;;65.13;;
5710;SDS011;61291;52.524;13.422;2022-09-14T07:14:20;75.40;;;69.00;;
5710;SDS011;61291;52.524;13.422;2022-09-14T07:16:46;74.43;;;67.10;;
5710;SDS011;61291;52.524;13.422;2022-09-14T07:19:12;73.07;;;67.00;;
5710;SDS011;61291;52.524;13.422;2022-09-14T07:21:38;70.83;;;64.47;;
5710;SDS011;61291;52.524;13.422;2022-09-14T07:24:04;66.17;;;59.70;;
5710;SDS011;61291;52.524;13.422;2022-09-14T07:26:31;68.37;;;61.87;;
5710;SDS011;61291;52.524;13.422;2022-09-14T07:29:03;69.30;;;62.20;;
5710;SDS011;61291;52.524;13.422;2022-09-14T07:31:32;66.87;;;61.00;;
5710;SDS011;61291;52.524;13.422;2022-09-14T07:34:04;65.30;;;59.00;;
5710;SDS011;61291;52.524;13.422;2022-09-14T07:36:30;69.70;;;63.20;;
5710;SDS011;61291;52.524;13.422;2022-09-14T07:38:57;75.03;;;67.63;;
5710;SDS011;61291;52.524;13.422;2022-09-14T07:41:23;69.70;;;62.80;;
5710;SDS011;61291;52.524;13.422;2022-09-14T07:43:51;74.37;;;66.37;;
5710;SDS011;61291;52.524;13.422;2022-09-14T07:46:18;71.33;;;64.40;;
5710;SDS011;61291;52.524;13.422;2022-09-14T07:48:45;70.00;;;62.67;;
5710;SDS011;61291;52.524;13.422;2022-09-14T07:51:11;70.50;;;63.47;;
5710;SDS011;61291;52.524;13.422;2022-09-14T07:53:38;68.37;;;61.47;;
5710;SDS011;61291;52.524;13.422;2022-09-14T07:56:06;70.40;;;64.23;;
5710;SDS011;61291;52.524;13.422;2022-09-14T07:58:33;67.50;;;61.40;;
5710;SDS011;61291;52.524;13.422;2022-09-14T08:01:00;64.47;;;58.77;;
5710;SDS011;61291;52.524;13.422;2022-09-14T08:03:27;64.30;;;58.60;;
5710;SDS011;61291;52.524;13.422;2022-09-14T08:06:00;69.30;;;63.40;;
5710;SDS011;61291;52.524;13.422;2022-09-14T08:08:37;68.40;;;61.20;;
5710;SDS011;61291;52.524;13.422;2022-09-14T08:11:05;65.53;;;60.00;;
5710;SDS011;61291;52.524;13.422;2022-09-14T08:13:35;65.57;;;58.53;;
5710;SDS011;61291;52.524;13.422;2022-09-14T08:16:01;64.90;;;59.20;;
5710;SDS011;61291;52.524;13.422;2022-09-14T08:18:28;64.90;;;59.00;;
5710;SDS011;61291;52.524;13.422;2022-09-14T08:20:54;67.40;;;61.17;;
5710;SDS011;61291;52.524;13.422;2022-09-14T08:23:20;67.63;;;60.90;;
5710;SDS011;61291;52.524;13.422;2022-09-14T08:25:46;63.73;;;54.43;;
5710;SDS011;61291;52.524;13.422;2022-09-14T08:28:12;61.00;;;55.50;;
5710;SDS011;61291;52.524;13.422;2022-09-14T08:30:37;61.43;;;55.60;;
5710;SDS011;61291;52.524;13.422;2022-09-14T08:33:03;64.43;;;58.73;;
5710;SDS011;61291;52.524;13.422;2022-09-14T08:35:28;58.93;;;53.30;;
5710;SDS011;61291;52.524;13.422;2022-09-14T08:37:54;62.30;;;56.40;;
5710;SDS011;61291;52.524;13.422;2022-09-14T08:40:19;63.20;;;57.50;;
5710;SDS011;61291;52.524;13.422;2022-09-14T08:42:45;62.70;;;56.90;;
5710;SDS011;61291;52.524;13.422;2022-09-14T08:45:12;66.40;;;60.80;;
5710;SDS011;61291;52.524;13.422;2022-09-14T08:47:40;64.60;;;58.50;;
5710;SDS011;61291;52.524;13.422;2022-09-14T08:52:43;69.13;;;62.90;;
5710;SDS011;61291;52.524;13.422;2022-09-14T08:58:33;62.63;;;57.60;;
5710;SDS011;61291;52.524;13.422;2022-09-14T09:04:18;66.43;;;61.03;;
5710;SDS011;61291;52.524;13.422;2022-09-14T09:06:57;64.47;;;59.20;;
5710;SDS011;61291;52.524;13.422;2022-09-14T09:09:44;63.80;;;58.23;;
5710;SDS011;61291;52.524;13.422;2022-09-14T09:12:13;65.67;;;59.70;;
5710;SDS011;61291;52.524;13.422;2022-09-14T09:14:46;67.73;;;62.13;;
5710;SDS011;61291;52.524;13.422;2022-09-14T09:17:24;63.80;;;58.20;;
5710;SDS011;61291;52.524;13.422;2022-09-14T09:20:20;66.30;;;60.57;;
5710;SDS011;61291;52.524;13.422;2022-09-14T09:25:48;60.30;;;55.40;;
5710;SDS011;61291;52.524;13.422;2022-09-14T09:28:16;62.23;;;56.93;;
5710;SDS011;61291;52.524;13.422;2022-09-14T09:30:42;71.00;;;63.60;;
5710;SDS011;61291;52.524;13.422;2022-09-14T09:33:42;60.93;;;55.80;;
5710;SDS011;61291;52.524;13.422;2022-09-14T09:36:01;66.00;;;60.00;;
5710;SDS011;61291;52.524;13.422;2022-09-14T09:38:27;64.93;;;59.00;;
5710;SDS011;61291;52.524;13.422;2022-09-14T09:40:54;67.50;;;61.40;;
5710;SDS011;61291;52.524;13.422;2022-09-14T09:43:35;64.77;;;59.40;;
5710;SDS011;61291;52.524;13.422;2022-09-14T09:46:26;66.20;;;60.30;;
5710;SDS011;61291;52.524;13.422;2022-09-14T09:48:53;62.67;;;57.27;;
5710;SDS011;61291;52.524;13.422;2022-09-14T09:53:52;66.10;;;60.20;;
5710;SDS011;61291;52.524;13.422;2022-09-14T09:56:28;72.67;;;66.73;;
5710;SDS011;61291;52.524;13.422;2022-09-14T09:59:00;65.87;;;60.13;;
5710;SDS011;61291;52.524;13.422;2022-09-14T10:01:26;66.87;;;60.90;;
5710;SDS011;61291;52.524;13.422;2022-09-14T10:04:04;65.23;;;59.33;;
5710;SDS011;61291;52.524;13.422;2022-09-14T10:06:30;62.20;;;57.20;;
5710;SDS011;61291;52.524;13.422;2022-09-14T10:08:56;68.10;;;62.10;;
5710;SDS011;61291;52.524;13.422;2022-09-14T10:11:25;69.43;;;63.83;;
5710;SDS011;61291;52.524;13.422;2022-09-14T10:14:02;70.77;;;65.27;;
5710;SDS011;61291;52.524;13.422;2022-09-14T10:16:32;66.53;;;61.13;;
5710;SDS011;61291;52.524;13.422;2022-09-14T10:19:00;69.40;;;63.00;;
5710;SDS011;61291;52.524;13.422;2022-09-14T10:21:27;65.97;;;61.27;;
5710;SDS011;61291;52.524;13.422;2022-09-14T10:24:14;64.50;;;59.40;;
5710;SDS011;61291;52.524;13.422;2022-09-14T10:26:41;63.90;;;58.93;;
5710;SDS011;61291;52.524;13.422;2022-09-14T10:29:15;65.40;;;59.70;;
5710;SDS011;61291;52.524;13.422;2022-09-14T10:32:05;63.80;;;58.60;;
5710;SDS011;61291;52.524;13.422;2022-09-14T10:34:42;65.23;;;59.90;;
5710;SDS011;61291;52.524;13.422;2022-09-14T10:37:12;63.17;;;57.80;;
5710;SDS011;61291;52.524;13.422;2022-09-14T10:40:10;66.37;;;60.87;;
5710;SDS011;61291;52.524;13.422;2022-09-14T10:45:27;69.10;;;61.93;;
5710;SDS011;61291;52.524;13.422;2022-09-14T10:50:32;61.83;;;56.93;;
5710;SDS011;61291;52.524;13.422;2022-09-14T10:55:57;67.00;;;61.77;;
5710;SDS011;61291;52.524;13.422;2022-09-14T11:01:28;67.37;;;61.37;;
5710;SDS011;61291;52.524;13.422;2022-09-14T11:04:30;70.00;;;64.50;;
5710;SDS011;61291;52.524;13.422;2022-09-14T11:07:17;66.10;;;60.50;;
5710;SDS011;61291;52.524;13.422;2022-09-14T11:09:57;60.78;;;55.47;;
5710;SDS011;61291;52.524;13.422;2022-09-14T11:12:36;63.93;;;58.77;;
5710;SDS011;61291;52.524;13.422;2022-09-14T11:17:48;67.10;;;61.30;;
5710;SDS011;61291;52.524;13.422;2022-09-14T11:20:36;64.40;;;59.70;;
5710;SDS011;61291;52.524;13.422;2022-09-14T11:23:20;72.63;;;67.00;;
5710;SDS011;61291;52.524;13.422;2022-09-14T11:26:02;66.40;;;60.90;;
5710;SDS011;61291;52.524;13.422;2022-09-14T11:28:53;68.70;;;63.97;;
5710;SDS011;61291;52.524;13.422;2022-09-14T11:31:30;71.77;;;65.90;;
5710;SDS011;61291;52.524;13.422;2022-09-14T11:34:12;69.60;;;63.73;;
5710;SDS011;61291;52.524;13.422;2022-09-14T11:36:47;67.80;;;62.40;;
5710;SDS011;61291;52.524;13.422;2022-09-14T11:39:17;73.70;;;68.30;;
5710;SDS011;61291;52.524;13.422;2022-09-14T11:41:55;71.00;;;65.40;;
5710;SDS011;61291;52.524;13.422;2022-09-14T11:44:39;65.40;;;60.55;;
5710;SDS011;61291;52.524;13.422;2022-09-14T11:47:13;74.43;;;68.93;;
5710;SDS011;61291;52.524;13.422;2022-09-14T11:52:28;73.27;;;67.17;;
5710;SDS011;61291;52.524;13.422;2022-09-14T11:54:56;72.90;;;65.30;;
5710;SDS011;61291;52.524;13.422;2022-09-14T11:57:24;59.70;;;54.80;;
5710;SDS011;61291;52.524;13.422;2022-09-14T12:00:02;71.27;;;64.90;;
5710;SDS011;61291;52.524;13.422;2022-09-14T12:10:27;68.03;;;62.67;;
5710;SDS011;61291;52.524;13.422;2022-09-14T12:12:56;70.03;;;64.40;;
5710;SDS011;61291;52.524;13.422;2022-09-14T12:15:37;65.97;;;59.60;;
5710;SDS011;61291;52.524;13.422;2022-09-14T12:23:05;78.63;;;71.63;;
5710;SDS011;61291;52.524;13.422;2022-09-14T12:25:56;70.43;;;65.10;;
5710;SDS011;61291;52.524;13.422;2022-09-14T12:28:35;66.47;;;61.17;;
5710;SDS011;61291;52.524;13.422;2022-09-14T12:35:58;67.23;;;61.80;;
5710;SDS011;61291;52.524;13.422;2022-09-14T12:41:00;65.97;;;60.20;;
5710;SDS011;61291;52.524;13.422;2022-09-14T12:46:04;68.37;;;62.67;;
5710;SDS011;61291;52.524;13.422;2022-09-14T12:51:20;70.87;;;64.80;;
5710;SDS011;61291;52.524;13.422;2022-09-14T12:56:36;70.77;;;64.83;;
5710;SDS011;61291;52.524;13.422;2022-09-14T12:59:08;76.17;;;69.27;;
5710;SDS011;61291;52.524;13.422;2022-09-14T13:04:29;71.83;;;65.93;;
5710;SDS011;61291;52.524;13.422;2022-09-14T13:06:57;72.73;;;66.87;;
5710;SDS011;61291;52.524;13.422;2022-09-14T13:09:26;77.10;;;69.60;;
5710;SDS011;61291;52.524;13.422;2022-09-14T13:11:55;75.77;;;69.77;;
5710;SDS011;61291;52.524;13.422;2022-09-14T13:14:29;68.90;;;63.37;;
5710;SDS011;61291;52.524;13.422;2022-09-14T13:16:58;73.20;;;66.90;;
5710;SDS011;61291;52.524;13.422;2022-09-14T13:19:28;74.00;;;68.30;;
5710;SDS011;61291;52.524;13.422;2022-09-14T13:21:56;74.87;;;68.93;;
5710;SDS011;61291;52.524;13.422;2022-09-14T13:24:34;72.63;;;66.80;;
5710;SDS011;61291;52.524;13.422;2022-09-14T13:27:06;68.93;;;63.33;;
5710;SDS011;61291;52.524;13.422;2022-09-14T13:32:40;72.67;;;67.37;;
5710;SDS011;61291;52.524;13.422;2022-09-14T13:35:13;74.90;;;69.00;;
5710;SDS011;61291;52.524;13.422;2022-09-14T13:37:41;73.20;;;67.20;;
5710;SDS011;61291;52.524;13.422;2022-09-14T13:40:07;75.73;;;69.50;;
5710;SDS011;61291;52.524;13.422;2022-09-14T13:42:33;73.70;;;67.40;;
5710;SDS011;61291;52.524;13.422;2022-09-14T13:44:58;78.77;;;72.80;;
5710;SDS011;61291;52.524;13.422;2022-09-14T13:47:24;74.17;;;68.77;;
5710;SDS011;61291;52.524;13.422;2022-09-14T13:49:51;79.40;;;73.63;;
5710;SDS011;61291;52.524;13.422;2022-09-14T13:52:28;68.80;;;63.20;;
5710;SDS011;61291;52.524;13.422;2022-09-14T14:00:44;64.87;;;59.47;;
5710;SDS011;61291;52.524;13.422;2022-09-14T14:03:24;63.77;;;58.33;;
5710;SDS011;61291;52.524;13.422;2022-09-14T14:05:52;72.97;;;66.87;;
5710;SDS011;61291;52.524;13.422;2022-09-14T14:08:31;63.97;;;58.17;;
5710;SDS011;61291;52.524;13.422;2022-09-14T14:11:01;64.13;;;58.30;;
5710;SDS011;61291;52.524;13.422;2022-09-14T14:13:30;66.10;;;60.77;;
5710;SDS011;61291;52.524;13.422;2022-09-14T14:16:14;66.73;;;60.83;;
5710;SDS011;61291;52.524;13.422;2022-09-14T14:18:51;63.23;;;57.60;;
5710;SDS011;61291;52.524;13.422;2022-09-14T14:23:47;56.95;;;52.25;;
5710;SDS011;61291;52.524;13.422;2022-09-14T14:26:18;64.23;;;59.00;;
5710;SDS011;61291;52.524;13.422;2022-09-14T14:28:49;66.07;;;59.33;;
5710;SDS011;61291;52.524;13.422;2022-09-14T14:31:16;62.93;;;57.43;;
5710;SDS011;61291;52.524;13.422;2022-09-14T14:33:45;59.33;;;54.97;;
5710;SDS011;61291;52.524;13.422;2022-09-14T14:36:12;61.67;;;56.90;;
5710;SDS011;61291;52.524;13.422;2022-09-14T14:38:39;67.87;;;62.07;;
5710;SDS011;61291;52.524;13.422;2022-09-14T14:41:07;64.30;;;59.20;;
5710;SDS011;61291;52.524;13.422;2022-09-14T14:43:38;64.27;;;59.37;;
5710;SDS011;61291;52.524;13.422;2022-09-14T14:46:05;65.60;;;60.00;;
5710;SDS011;61291;52.524;13.422;2022-09-14T14:48:30;62.33;;;57.60;;
5710;SDS011;61291;52.524;13.422;2022-09-14T14:50:56;73.40;;;67.00;;
5710;SDS011;61291;52.524;13.422;2022-09-14T14:53:22;58.70;;;53.50;;
5710;SDS011;61291;52.524;13.422;2022-09-14T14:55:48;66.30;;;60.90;;
5710;SDS011;61291;52.524;13.422;2022-09-14T14:58:15;68.27;;;62.67;;
5710;SDS011;61291;52.524;13.422;2022-09-14T15:00:43;63.83;;;58.53;;
5710;SDS011;61291;52.524;13.422;2022-09-14T15:03:09;64.33;;;59.20;;
5710;SDS011;61291;52.524;13.422;2022-09-14T15:05:39;63.73;;;58.50;;
5710;SDS011;61291;52.524;13.422;2022-09-14T15:08:09;61.30;;;56.90;;
5710;SDS011;61291;52.524;13.422;2022-09-14T15:10:35;61.40;;;56.50;;
5710;SDS011;61291;52.524;13.422;2022-09-14T15:13:01;63.27;;;58.10;;
5710;SDS011;61291;52.524;13.422;2022-09-14T15:15:26;58.07;;;53.13;;
5710;SDS011;61291;52.524;13.422;2022-09-14T15:17:52;63.30;;;58.03;;
5710;SDS011;61291;52.524;13.422;2022-09-14T15:20:18;61.97;;;57.00;;
5710;SDS011;61291;52.524;13.422;2022-09-14T15:22:44;61.73;;;56.73;;
5710;SDS011;61291;52.524;13.422;2022-09-14T15:25:11;61.40;;;56.50;;
5710;SDS011;61291;52.524;13.422;2022-09-14T15:27:37;59.67;;;54.60;;
5710;SDS011;61291;52.524;13.422;2022-09-14T15:30:04;61.30;;;56.27;;
5710;SDS011;61291;52.524;13.422;2022-09-14T15:32:31;61.80;;;56.80;;
5710;SDS011;61291;52.524;13.422;2022-09-14T15:34:56;61.67;;;56.77;;
5710;SDS011;61291;52.524;13.422;2022-09-14T15:37:22;57.37;;;52.83;;
5710;SDS011;61291;52.524;13.422;2022-09-14T15:39:47;59.77;;;55.47;;
5710;SDS011;61291;52.524;13.422;2022-09-14T15:42:14;63.63;;;58.50;;
5710;SDS011;61291;52.524;13.422;2022-09-14T15:44:40;61.67;;;56.47;;
5710;SDS011;61291;52.524;13.422;2022-09-14T15:47:06;58.63;;;53.97;;
5710;SDS011;61291;52.524;13.422;2022-09-14T15:49:31;62.00;;;56.73;;
5710;SDS011;61291;52.524;13.422;2022-09-14T15:51:57;61.50;;;56.67;;
5710;SDS011;61291;52.524;13.422;2022-09-14T15:54:23;58.13;;;53.67;;
5710;SDS011;61291;52.524;13.422;2022-09-14T15:56:51;63.00;;;57.30;;
5710;SDS011;61291;52.524;13.422;2022-09-14T15:59:18;61.63;;;56.63;;